page 5122 of 1004564 registered users

eBook PostsUsers

  1. 0agendamile4 registered @ 2012-12-27 15:14:20, last login @ 2012-12-27 15:14:20
  2. 0wartile71 registered @ 2012-12-27 15:14:40, last login @ 2012-12-27 15:14:40
  3. 0owl4glass registered @ 2012-12-27 15:16:22, last login @ 2012-12-27 15:16:22
  4. 0bagcap49 registered @ 2012-12-27 15:16:45, last login @ 2012-12-27 15:16:45
  5. 0sinkgreek7 registered @ 2012-12-27 15:17:30, last login @ 2012-12-27 15:17:30
  6. 0mark81chance registered @ 2012-12-27 15:19:22, last login @ 2012-12-27 15:19:22
  7. 0talkapril0 registered @ 2012-12-27 15:19:23, last login @ 2012-12-27 15:19:23
  8. 0itlrzqovg registered @ 2012-12-27 15:20:11, last login @ 2012-12-27 15:20:11
  9. 0gym0self registered @ 2012-12-27 15:22:02, last login @ 2012-12-27 15:22:02
  10. 0bumper3zone registered @ 2012-12-27 15:22:09, last login @ 2012-12-27 15:22:09
  11. 0coasthoe6 registered @ 2012-12-27 15:24:37, last login @ 2012-12-27 15:24:37
  12. 0inkperiod5 registered @ 2012-12-27 15:25:00, last login @ 2012-12-27 15:25:00
  13. 0middle7denim registered @ 2012-12-27 15:25:54, last login @ 2012-12-27 15:25:54
  14. 0arrowspring1 registered @ 2012-12-27 15:27:42, last login @ 2012-12-27 15:27:42
  15. 0jeff05break registered @ 2012-12-27 15:27:47, last login @ 2012-12-27 15:27:47
  16. 0mine4llama registered @ 2012-12-27 15:29:56, last login @ 2012-12-27 15:29:56
  17. 0date82guitar registered @ 2012-12-27 15:30:10, last login @ 2012-12-27 15:30:10
  18. 0congo69market registered @ 2012-12-27 15:31:04, last login @ 2012-12-27 15:31:04
  19. 0eagle60bite registered @ 2012-12-27 15:33:33, last login @ 2012-12-27 15:33:33
  20. 0snow8file registered @ 2012-12-27 15:34:22, last login @ 2012-12-27 15:42:48
  21. 0floodpaint21 registered @ 2012-12-27 15:34:42, last login @ 2012-12-27 15:34:42
  22. 0budget23rubber registered @ 2012-12-27 15:34:45, last login @ 2012-12-27 15:34:45
  23. 0day5stew registered @ 2012-12-27 15:35:12, last login @ 2012-12-27 15:35:12
  24. 0beautyticket1 registered @ 2012-12-27 15:36:04, last login @ 2012-12-27 15:36:04
  25. 0persongong4 registered @ 2012-12-27 15:36:23, last login @ 2012-12-27 15:36:23
  26. 0chalkbrandy3 registered @ 2012-12-27 15:37:59, last login @ 2012-12-27 15:37:59
  27. 0actweight1 registered @ 2012-12-27 15:40:05, last login @ 2012-12-27 15:40:05
  28. 0button8sleet registered @ 2012-12-27 15:41:00, last login @ 2012-12-27 15:41:00
  29. 0brazilrecord9 registered @ 2012-12-27 15:41:59, last login @ 2012-12-27 15:41:59
  30. 0adultspot88 registered @ 2012-12-27 15:42:29, last login @ 2012-12-27 15:42:29
  31. 0donkeymap1 registered @ 2012-12-27 15:42:46, last login @ 2012-12-27 15:42:46
  32. 0walruscloud4 registered @ 2012-12-27 15:42:46, last login @ 2012-12-27 15:42:46
  33. 0raneydeu3hved registered @ 2012-12-27 15:42:47, last login @ 2012-12-27 15:42:47
  34. 0fleshsummer59 registered @ 2012-12-27 15:44:31, last login @ 2012-12-27 15:44:31
  35. 0turretpot76 registered @ 2012-12-27 15:45:03, last login @ 2012-12-27 15:45:03
  36. 0townlove8 registered @ 2012-12-27 15:46:27, last login @ 2012-12-27 15:46:27
  37. 0van26sort registered @ 2012-12-27 15:48:14, last login @ 2012-12-27 15:48:14
  38. 0dewguide1 registered @ 2012-12-27 15:49:29, last login @ 2012-12-27 15:49:29
  39. 0flockclimb6 registered @ 2012-12-27 15:49:59, last login @ 2012-12-27 15:49:59
  40. 0corn36foot registered @ 2012-12-27 15:50:34, last login @ 2012-12-27 15:50:34
  41. 0jumbo1ray registered @ 2012-12-27 15:52:21, last login @ 2012-12-27 15:52:21
  42. 0partdoubt6 registered @ 2012-12-27 15:52:24, last login @ 2012-12-27 15:52:24
  43. 0pairchive43 registered @ 2012-12-27 15:52:29, last login @ 2012-12-27 15:52:29
  44. 0banana58chief registered @ 2012-12-27 15:53:12, last login @ 2012-12-27 15:53:12
  45. 0desk13boat registered @ 2012-12-27 15:53:47, last login @ 2012-12-27 15:53:47
  46. 0cloudy3august registered @ 2012-12-27 15:55:00, last login @ 2012-12-27 15:55:00
  47. 0cryygh31 registered @ 2012-12-27 15:56:21, last login @ 2012-12-27 15:56:21
  48. 0money6marble registered @ 2012-12-27 15:57:19, last login @ 2012-12-27 15:57:19
  49. 0belt8jar registered @ 2012-12-27 15:57:32, last login @ 2012-12-27 15:57:32
  50. 0holetramp07 registered @ 2012-12-27 15:58:22, last login @ 2012-12-27 15:58:22
  51. 0temple7force registered @ 2012-12-27 15:59:21, last login @ 2012-12-27 15:59:21
  52. 0bait44mile registered @ 2012-12-27 16:00:00, last login @ 2012-12-27 16:00:00
  53. 0felony1yoke registered @ 2012-12-27 16:00:46, last login @ 2012-12-27 16:00:46
  54. 0kale7mother registered @ 2012-12-27 16:00:55, last login @ 2012-12-27 16:00:55
  55. 0dancercinema71 registered @ 2012-12-27 16:01:02, last login @ 2012-12-27 16:01:02
  56. 0cactusbutane72 registered @ 2012-12-27 16:01:55, last login @ 2012-12-27 16:42:13
  57. 0cartbean42 registered @ 2012-12-27 16:02:30, last login @ 2012-12-27 16:24:25
  58. 0gastrout1 registered @ 2012-12-27 16:02:55, last login @ 2012-12-27 16:44:03
  59. 0rockchina02 registered @ 2012-12-27 16:03:22, last login @ 2012-12-27 16:45:32
  60. 0single8tower registered @ 2012-12-27 16:04:35, last login @ 2012-12-27 16:04:35
  61. 0clutch17coin registered @ 2012-12-27 16:06:32, last login @ 2012-12-27 16:06:32
  62. 0end1spain registered @ 2012-12-27 16:07:04, last login @ 2012-12-27 16:07:04
  63. 0pearl789denn registered @ 2012-12-27 16:07:07, last login @ 2012-12-27 16:07:07
  64. 0side1tailor registered @ 2012-12-27 16:07:10, last login @ 2012-12-27 16:07:10
  65. 0crayon0fender registered @ 2012-12-27 16:08:07, last login @ 2012-12-27 16:08:07
  66. 0Scottylgf registered @ 2012-12-27 16:08:22, last login @ 2012-12-27 16:08:22
  67. 0reasoninput72 registered @ 2012-12-27 16:08:49, last login @ 2012-12-27 16:08:49
  68. 0jeffrain2 registered @ 2012-12-27 16:09:17, last login @ 2012-12-27 16:09:17
  69. 0trip35house registered @ 2012-12-27 16:09:33, last login @ 2012-12-27 16:09:33
  70. 0paulgrape93 registered @ 2012-12-27 16:10:54, last login @ 2012-12-27 16:10:54
  71. 0Mask2012 registered @ 2012-12-27 16:12:08, last login @ 2012-12-27 16:13:50
  72. 0liza145norling registered @ 2012-12-27 16:13:06, last login @ 2012-12-27 16:13:06
  73. 0porchlink4 registered @ 2012-12-27 16:14:49, last login @ 2012-12-27 16:14:49
  74. 0seederver85 registered @ 2012-12-27 16:19:46, last login @ 2012-12-27 16:19:46
  75. 0damia registered @ 2012-12-27 16:20:01, last login @ 2012-12-27 16:20:01
  76. 0AllenHMalek registered @ 2012-12-27 16:20:02, last login @ 2012-12-27 16:31:47
  77. 0hartustdiaro registered @ 2012-12-27 16:20:02, last login @ 2012-12-27 16:20:02
  78. 0pianokettle5 registered @ 2012-12-27 16:20:15, last login @ 2012-12-27 16:20:15
  79. 0tubacrime6 registered @ 2012-12-27 16:21:11, last login @ 2012-12-27 16:21:11
  80. 0dibblestamp45 registered @ 2012-12-27 16:22:55, last login @ 2012-12-27 16:22:55
  81. 0mask7land registered @ 2012-12-27 16:23:44, last login @ 2012-12-27 16:23:44
  82. 0Macjonny39 registered @ 2012-12-27 16:23:54, last login @ 2012-12-27 16:23:54
  83. 0season74crush registered @ 2012-12-27 16:24:05, last login @ 2012-12-27 16:46:52
  84. 0outputcatsup34 registered @ 2012-12-27 16:26:25, last login @ 2012-12-27 16:26:25
  85. 0soycloud5 registered @ 2012-12-27 16:28:17, last login @ 2012-12-27 16:28:17
  86. 0appealstory12 registered @ 2012-12-27 16:28:38, last login @ 2012-12-27 16:28:38
  87. 0bacon55tooth registered @ 2012-12-27 16:29:12, last login @ 2012-12-27 16:29:12
  88. 0seedframe50 registered @ 2012-12-27 16:29:43, last login @ 2012-12-27 16:29:43
  89. 0lisa82fruit registered @ 2012-12-27 16:31:10, last login @ 2012-12-27 16:31:10
  90. 0gear47news registered @ 2012-12-27 16:31:22, last login @ 2012-12-27 16:31:22
  91. 0ninajohnb491 registered @ 2012-12-27 16:32:08, last login @ 2012-12-27 16:32:08
  92. 0reason3camera registered @ 2012-12-27 16:33:28, last login @ 2012-12-27 16:33:28
  93. 0paper14flight registered @ 2012-12-27 16:35:06, last login @ 2012-12-27 16:35:06
  94. 0qstpcj29 registered @ 2012-12-27 16:36:02, last login @ 2012-12-27 16:36:02
  95. 0plow5stock registered @ 2012-12-27 16:36:08, last login @ 2012-12-27 16:36:08
  96. 0mathewgamboa470 registered @ 2012-12-27 16:36:48, last login @ 2012-12-27 16:36:48
  97. 0fishsquash99 registered @ 2012-12-27 16:37:38, last login @ 2012-12-27 16:37:38
  98. 0gymmonday8 registered @ 2012-12-27 16:38:39, last login @ 2012-12-27 16:38:39
  99. 0mmmatriz registered @ 2012-12-27 16:39:43, last login @ 2012-12-27 16:42:38
  100. 0plotdriver9 registered @ 2012-12-27 16:40:32, last login @ 2012-12-27 16:40:32
  101. 0bootssay06 registered @ 2012-12-27 16:40:42, last login @ 2012-12-27 16:40:42

More...

[5132] [5131] [5130] [5129] [5128] [5127] [5126] [5125] [5124] [5123] [5122] [5121] [5120] [5119] [5118] [5117] [5116] [5115] [5114] [5113] ...[1]
Back to Top